Time;durP1;ratioP1;P1;durP2;ratioP2;P2;SDS_P1;SDS_P2;PMS_P1;PMS_P2;Temp;Humidity;BMP_temperature;BMP_pressure;BME280_temperature;BME280_humidity;BME280_pressure;Samples;Min_cycle;Max_cycle;Signal;HPM_P1;HPM_P2
2023/03/13 00:01:16;;;;;;;4.60;4.20;;;8.00;99.90;;;;;;5034835;28;20293;-90
2023/03/13 00:03:44;;;;;;;4.05;3.65;;;8.00;99.90;;;;;;5036264;28;20297;-91
2023/03/13 00:06:13;;;;;;;3.80;3.47;;;8.00;99.90;;;;;;5035589;28;20190;-91
2023/03/13 00:08:43;;;;;;;4.50;3.53;;;8.00;99.90;;;;;;5035908;28;20206;-91
2023/03/13 00:11:14;;;;;;;4.00;3.20;;;7.90;99.90;;;;;;5036125;28;20229;-90
2023/03/13 00:13:43;;;;;;;3.95;3.55;;;7.90;99.90;;;;;;5035902;28;20264;-91
2023/03/13 00:16:14;;;;;;;3.03;2.83;;;8.00;99.90;;;;;;5035777;28;20276;-90
2023/03/13 00:18:46;;;;;;;5.40;3.83;;;8.00;99.90;;;;;;5035338;28;20209;-90
2023/03/13 00:21:14;;;;;;;4.60;3.08;;;8.00;99.90;;;;;;5035246;28;20255;-91
2023/03/13 00:23:42;;;;;;;3.45;3.15;;;8.00;99.90;;;;;;5035543;28;20198;-91
2023/03/13 00:26:12;;;;;;;3.20;2.92;;;8.00;99.90;;;;;;5035422;28;20257;-91
2023/03/13 00:28:42;;;;;;;4.15;3.47;;;8.00;99.90;;;;;;5035104;28;20305;-91
2023/03/13 00:31:16;;;;;;;3.42;3.00;;;8.00;99.90;;;;;;5035349;28;20231;-91
2023/03/13 00:33:46;;;;;;;3.90;3.33;;;8.00;99.90;;;;;;5035490;28;20209;-90
2023/03/13 00:36:16;;;;;;;4.93;3.35;;;8.00;99.90;;;;;;5035661;28;20198;-91
2023/03/13 00:38:45;;;;;;;4.05;3.67;;;8.00;99.90;;;;;;5035005;28;20297;-91
2023/03/13 00:41:15;;;;;;;4.63;2.90;;;7.90;99.90;;;;;;5035230;28;20276;-91
2023/03/13 00:43:44;;;;;;;2.63;2.42;;;7.90;99.90;;;;;;5035429;28;20207;-90
2023/03/13 00:46:16;;;;;;;2.70;2.50;;;7.90;99.90;;;;;;5036435;28;20210;-91
2023/03/13 00:48:45;;;;;;;3.17;2.47;;;7.90;99.90;;;;;;5036096;28;20203;-90
2023/03/13 00:51:14;;;;;;;2.38;2.25;;;7.90;99.90;;;;;;5038356;28;20249;-90
2023/03/13 00:53:43;;;;;;;3.30;2.25;;;7.90;99.90;;;;;;5038154;28;20206;-90
2023/03/13 00:56:13;;;;;;;2.55;2.35;;;7.90;99.90;;;;;;5038719;28;20276;-90
2023/03/13 00:58:42;;;;;;;2.67;2.47;;;7.90;99.90;;;;;;5035018;28;20206;-90
2023/03/13 01:01:12;;;;;;;2.50;2.30;;;7.80;99.90;;;;;;5034888;28;20226;-90
2023/03/13 01:03:44;;;;;;;1.90;1.80;;;7.80;99.90;;;;;;5034952;28;20245;-90
2023/03/13 01:06:15;;;;;;;1.80;1.70;;;7.80;99.90;;;;;;5035016;28;20264;-90
2023/03/13 01:08:43;;;;;;;5.32;2.28;;;7.80;99.90;;;;;;5034616;28;20210;-90
2023/03/13 01:11:14;;;;;;;2.58;2.28;;;7.70;99.90;;;;;;5034722;28;20229;-91
2023/03/13 01:13:42;;;;;;;2.78;2.40;;;7.70;99.90;;;;;;5034660;28;20257;-91
2023/03/13 01:16:13;;;;;;;2.55;2.35;;;7.70;99.90;;;;;;5034251;28;20254;-91
2023/03/13 01:18:45;;;;;;;2.58;2.38;;;7.70;99.90;;;;;;5034169;28;20210;-91
2023/03/13 01:21:15;;;;;;;2.50;2.30;;;7.70;99.90;;;;;;5034361;28;20218;-90
2023/03/13 01:23:43;;;;;;;2.25;2.05;;;7.70;99.90;;;;;;5034593;28;20211;-89
2023/03/13 01:26:12;;;;;;;4.30;2.70;;;7.70;99.90;;;;;;5034481;28;20230;-89
2023/03/13 01:28:41;;;;;;;2.20;2.00;;;7.70;99.90;;;;;;5033787;28;20301;-90
2023/03/13 01:31:13;;;;;;;4.53;2.22;;;7.70;99.90;;;;;;5033991;28;20230;-90
2023/03/13 01:33:43;;;;;;;3.55;2.38;;;7.60;99.90;;;;;;5034118;28;20206;-90
2023/03/13 01:36:12;;;;;;;3.17;2.80;;;7.70;99.90;;;;;;5034347;28;20242;-90
2023/03/13 01:38:41;;;;;;;2.47;2.08;;;7.60;99.90;;;;;;5033699;28;20233;-90
2023/03/13 01:41:12;;;;;;;3.00;2.35;;;7.60;99.90;;;;;;5034204;28;20218;-90
2023/03/13 01:43:40;;;;;;;3.22;2.58;;;7.60;99.90;;;;;;5033612;28;20282;-90
2023/03/13 01:46:15;;;;;;;2.22;2.10;;;7.50;99.90;;;;;;5034339;28;20214;-90
2023/03/13 01:48:49;;;;;;;2.60;2.40;;;7.50;99.90;;;;;;5032901;28;20225;-90
2023/03/13 01:51:22;;;;;;;2.53;2.33;;;7.40;99.90;;;;;;5034457;28;20227;-90
2023/03/13 01:53:56;;;;;;;2.60;2.40;;;7.40;99.90;;;;;;5034508;28;20241;-90
2023/03/13 01:56:30;;;;;;;3.28;2.40;;;7.40;99.90;;;;;;5033301;28;20290;-90
2023/03/13 01:58:59;;;;;;;3.28;2.72;;;7.40;99.90;;;;;;5033608;28;20209;-90
2023/03/13 02:01:28;;;;;;;4.90;2.92;;;7.40;99.90;;;;;;5034158;28;20322;-91
2023/03/13 02:03:59;;;;;;;2.72;2.53;;;7.40;99.90;;;;;;5034232;28;20237;-91
2023/03/13 02:06:30;;;;;;;2.38;2.17;;;7.30;99.90;;;;;;5033830;28;20213;-90
2023/03/13 02:09:04;;;;;;;2.40;2.20;;;7.30;99.90;;;;;;5032862;28;20241;-90
2023/03/13 02:11:45;;;;;;;2.10;2.00;;;7.30;99.90;;;;;;5033881;28;20277;-90
2023/03/13 02:14:15;;;;;;;5.32;2.92;;;7.20;99.90;;;;;;5033475;28;20202;-90
2023/03/13 02:16:46;;;;;;;2.50;2.30;;;7.20;99.90;;;;;;5033117;28;20290;-89
2023/03/13 02:19:24;;;;;;;3.28;2.53;;;7.20;99.90;;;;;;5033287;28;20298;-91
2023/03/13 02:22:00;;;;;;;17.02;2.85;;;7.10;99.90;;;;;;5033461;28;20265;-91
2023/03/13 02:24:33;;;;;;;3.05;2.80;;;7.10;99.90;;;;;;5033662;28;20202;-91
2023/03/13 02:27:03;;;;;;;3.30;2.72;;;7.10;99.90;;;;;;5032922;28;20240;-91
2023/03/13 02:29:32;;;;;;;2.72;2.53;;;7.10;99.90;;;;;;5033430;28;20292;-90
2023/03/13 02:32:00;;;;;;;4.00;2.75;;;7.10;99.90;;;;;;5034027;28;20305;-89
2023/03/13 02:34:32;;;;;;;2.78;2.58;;;7.10;99.90;;;;;;5033266;28;20297;-91
2023/03/13 02:37:04;;;;;;;3.03;2.50;;;7.00;99.90;;;;;;5032539;28;20269;-91
2023/03/13 02:39:34;;;;;;;4.03;2.95;;;7.00;99.90;;;;;;5032430;28;20230;-89
2023/03/13 02:42:04;;;;;;;2.60;2.40;;;7.00;99.90;;;;;;5032783;28;20206;-89
2023/03/13 02:44:38;;;;;;;2.97;2.70;;;7.00;99.90;;;;;;5033672;28;20248;-90
2023/03/13 02:47:08;;;;;;;3.03;2.72;;;7.10;99.90;;;;;;5032294;28;20206;-90
2023/03/13 02:49:37;;;;;;;2.75;2.55;;;7.10;99.90;;;;;;5032842;28;20222;-90
2023/03/13 02:52:12;;;;;;;3.97;3.10;;;7.00;99.90;;;;;;5032779;28;20257;-90
2023/03/13 02:54:43;;;;;;;3.30;3.00;;;7.00;99.90;;;;;;5033180;28;20232;-90
2023/03/13 02:57:13;;;;;;;3.60;2.78;;;7.00;99.90;;;;;;5032310;28;20297;-90
2023/03/13 02:59:41;;;;;;;3.55;3.17;;;7.00;99.90;;;;;;5033280;28;20223;-90
2023/03/13 03:02:09;;;;;;;6.60;2.80;;;7.00;99.90;;;;;;5032706;28;20202;-90
2023/03/13 03:04:38;;;;;;;5.00;3.42;;;7.00;99.90;;;;;;5032344;28;20241;-90
2023/03/13 03:07:06;;;;;;;3.22;2.90;;;7.00;99.90;;;;;;5032211;28;20271;-90
2023/03/13 03:09:35;;;;;;;3.05;2.33;;;7.10;99.90;;;;;;5036553;28;20365;-90
2023/03/13 03:12:03;;;;;;;2.40;2.20;;;7.10;99.90;;;;;;5037146;28;20266;-90
2023/03/13 03:14:33;;;;;;;3.17;2.88;;;7.10;99.90;;;;;;5036457;28;20273;-90
2023/03/13 03:17:01;;;;;;;3.72;2.70;;;7.10;99.90;;;;;;5035693;28;20305;-90
2023/03/13 03:19:29;;;;;;;3.17;2.65;;;7.10;99.90;;;;;;5036597;28;20226;-89
2023/03/13 03:21:58;;;;;;;3.40;3.10;;;7.10;99.90;;;;;;5036689;28;20232;-90
2023/03/13 03:24:26;;;;;;;3.20;2.90;;;7.10;99.90;;;;;;5036302;28;20222;-90
2023/03/13 03:26:55;;;;;;;4.82;3.20;;;7.10;99.90;;;;;;5039272;28;20194;-90
2023/03/13 03:29:23;;;;;;;2.70;2.50;;;7.20;99.90;;;;;;5037053;28;20260;-90
2023/03/13 03:31:53;;;;;;;3.38;3.00;;;7.20;99.90;;;;;;5036284;28;20203;-90
2023/03/13 03:34:22;;;;;;;3.28;3.03;;;7.20;99.90;;;;;;5036889;28;20222;-91
2023/03/13 03:36:51;;;;;;;3.10;2.90;;;7.20;99.90;;;;;;5035874;28;20313;-91
2023/03/13 03:39:19;;;;;;;4.28;3.35;;;7.10;99.90;;;;;;5036720;28;20231;-90
2023/03/13 03:41:47;;;;;;;3.30;3.00;;;7.10;99.90;;;;;;5036063;28;20203;-91
2023/03/13 03:44:16;;;;;;;4.57;3.40;;;7.20;99.90;;;;;;5036539;28;20274;-90
2023/03/13 03:46:44;;;;;;;3.42;2.88;;;7.20;99.90;;;;;;5035582;28;20199;-90
2023/03/13 03:49:14;;;;;;;3.92;3.55;;;7.20;99.90;;;;;;5036149;28;20252;-90
2023/03/13 03:51:42;;;;;;;2.85;2.65;;;7.20;99.90;;;;;;5036018;28;20209;-90
2023/03/13 03:54:10;;;;;;;4.28;3.15;;;7.20;99.90;;;;;;5035890;28;20214;-90
2023/03/13 03:56:38;;;;;;;2.88;2.67;;;7.20;99.90;;;;;;5035372;28;20214;-90
2023/03/13 03:59:07;;;;;;;5.45;3.33;;;7.10;99.90;;;;;;5035638;28;20262;-91
2023/03/13 04:01:35;;;;;;;4.47;3.35;;;7.20;99.90;;;;;;5035895;28;20289;-91
2023/03/13 04:04:03;;;;;;;3.25;2.75;;;7.10;99.90;;;;;;5036207;28;20233;-90
2023/03/13 04:06:33;;;;;;;4.22;3.42;;;7.10;99.90;;;;;;5035839;28;20225;-91
2023/03/13 04:09:01;;;;;;;2.67;2.47;;;7.10;99.90;;;;;;5035329;28;20274;-90
2023/03/13 04:11:29;;;;;;;3.30;3.00;;;7.10;99.90;;;;;;5036216;28;20289;-90
2023/03/13 04:13:58;;;;;;;3.55;3.25;;;7.10;99.90;;;;;;5035947;28;20226;-90
2023/03/13 04:16:26;;;;;;;3.97;2.92;;;7.10;99.90;;;;;;5035225;28;20210;-90
2023/03/13 04:18:54;;;;;;;4.60;3.10;;;7.10;99.90;;;;;;5035465;28;20209;-90
2023/03/13 04:21:23;;;;;;;3.60;2.85;;;7.10;99.90;;;;;;5035571;28;20215;-89
2023/03/13 04:23:53;;;;;;;5.75;3.47;;;7.10;99.90;;;;;;5036166;28;20297;-90
2023/03/13 04:26:21;;;;;;;2.90;2.60;;;7.00;99.90;;;;;;5035981;28;20203;-89
2023/03/13 04:28:49;;;;;;;4.55;3.15;;;6.90;99.90;;;;;;5035074;28;20276;-90
2023/03/13 04:31:18;;;;;;;3.80;2.45;;;6.90;99.90;;;;;;5035658;28;20233;-90
2023/03/13 04:33:49;;;;;;;2.70;2.35;;;6.90;99.90;;;;;;5035489;28;20217;-90
2023/03/13 04:36:17;;;;;;;2.97;2.72;;;6.90;99.90;;;;;;5035735;28;20281;-91
2023/03/13 04:38:46;;;;;;;2.47;2.28;;;7.00;99.90;;;;;;5035239;28;20210;-90
2023/03/13 04:41:16;;;;;;;5.00;3.20;;;7.00;99.90;;;;;;5035366;28;20223;-90
2023/03/13 04:43:44;;;;;;;1.83;1.73;;;7.00;99.90;;;;;;5035951;28;20283;-90
2023/03/13 04:46:12;;;;;;;2.38;2.17;;;7.00;99.90;;;;;;5035059;28;20235;-90
2023/03/13 04:48:41;;;;;;;2.33;2.13;;;7.10;99.90;;;;;;5034234;28;20206;-90
2023/03/13 04:51:10;;;;;;;3.05;2.00;;;7.20;99.90;;;;;;5034485;28;20214;-90
2023/03/13 04:53:38;;;;;;;23.40;2.38;;;7.20;99.90;;;;;;5035147;28;20298;-90
2023/03/13 04:56:07;;;;;;;16.55;2.55;;;7.30;99.90;;;;;;5034840;28;20194;-90
2023/03/13 04:58:37;;;;;;;2.17;1.95;;;7.40;99.90;;;;;;5034341;28;20215;-90
2023/03/13 05:01:05;;;;;;;2.25;2.00;;;7.50;99.90;;;;;;5034596;28;20222;-90
2023/03/13 05:03:33;;;;;;;13.75;2.38;;;7.50;99.90;;;;;;5034716;28;20206;-91
2023/03/13 05:06:02;;;;;;;2.72;2.03;;;7.50;99.90;;;;;;5034251;28;20263;-91
2023/03/13 05:08:30;;;;;;;2.58;2.38;;;7.50;99.90;;;;;;5034136;28;20262;-90
2023/03/13 05:10:58;;;;;;;2.92;2.60;;;7.50;99.90;;;;;;5034320;28;20277;-91
2023/03/13 05:13:26;;;;;;;2.90;2.47;;;7.50;99.90;;;;;;5034864;28;20225;-90
2023/03/13 05:15:56;;;;;;;3.72;2.75;;;7.40;99.90;;;;;;5034068;28;20221;-90
2023/03/13 05:18:25;;;;;;;5.00;3.13;;;7.40;99.90;;;;;;5033554;28;20218;-90
2023/03/13 05:20:53;;;;;;;2.22;2.03;;;7.40;99.90;;;;;;5033434;28;20227;-90
2023/03/13 05:23:22;;;;;;;3.58;2.60;;;7.40;99.90;;;;;;5034308;28;20211;-89
2023/03/13 05:25:50;;;;;;;2.63;2.42;;;7.30;99.90;;;;;;5034128;28;20241;-90
2023/03/13 05:28:18;;;;;;;3.20;2.35;;;7.30;99.90;;;;;;5033290;28;20268;-90
2023/03/13 05:30:47;;;;;;;4.05;3.13;;;7.30;99.90;;;;;;5033435;28;20322;-90
2023/03/13 05:33:18;;;;;;;2.38;2.13;;;7.30;99.90;;;;;;5033943;28;20202;-91
2023/03/13 05:35:46;;;;;;;2.80;2.00;;;7.30;99.90;;;;;;5034486;28;20214;-91
2023/03/13 05:38:15;;;;;;;3.08;2.67;;;7.30;99.90;;;;;;5032469;28;20218;-83
2023/03/13 05:40:43;;;;;;;7.00;2.10;;;7.20;99.90;;;;;;5033770;28;20309;-83
2023/03/13 05:43:12;;;;;;;4.68;2.75;;;7.20;99.90;;;;;;5026387;28;20207;-83
2023/03/13 05:45:40;;;;;;;2.47;2.08;;;7.10;99.90;;;;;;5023744;28;20252;-83
2023/03/13 05:48:08;;;;;;;7.85;3.05;;;7.10;99.90;;;;;;5025845;28;20282;-83
2023/03/13 05:50:38;;;;;;;1.90;1.80;;;7.10;99.90;;;;;;5030392;28;20219;-85
2023/03/13 05:53:06;;;;;;;2.40;2.20;;;7.10;99.90;;;;;;5033721;28;20204;-86
2023/03/13 05:55:35;;;;;;;5.47;2.58;;;7.10;99.90;;;;;;5033340;28;20327;-86
2023/03/13 05:58:03;;;;;;;2.25;2.05;;;7.20;99.90;;;;;;5032723;28;20246;-85
2023/03/13 06:00:32;;;;;;;2.47;2.25;;;7.20;99.90;;;;;;5033094;28;20249;-91
2023/03/13 06:03:00;;;;;;;3.22;2.20;;;7.20;99.90;;;;;;5033457;28;20266;-91
2023/03/13 06:05:28;;;;;;;5.18;2.10;;;7.20;99.90;;;;;;5033658;28;20260;-91
2023/03/13 06:07:58;;;;;;;2.75;2.33;;;7.30;99.90;;;;;;5032918;28;20218;-90
2023/03/13 06:10:27;;;;;;;3.70;2.63;;;7.30;99.90;;;;;;5033181;28;20232;-91
2023/03/13 06:12:57;;;;;;;2.22;2.10;;;7.30;99.90;;;;;;5033667;28;20285;-90
2023/03/13 06:15:34;;;;;;;2.20;2.00;;;7.30;99.90;;;;;;5033359;28;20308;-85
2023/03/13 06:18:03;;;;;;;2.95;2.65;;;7.30;99.90;;;;;;5049721;28;20226;-85
2023/03/13 06:20:32;;;;;;;3.22;2.55;;;7.30;99.90;;;;;;5052518;28;20217;-85
2023/03/13 06:23:02;;;;;;;2.50;2.30;;;7.30;99.90;;;;;;5052394;28;20367;-85
2023/03/13 06:25:30;;;;;;;2.10;2.00;;;7.30;99.90;;;;;;5039457;28;20198;-85
2023/03/13 06:27:58;;;;;;;2.05;1.95;;;7.30;99.90;;;;;;5032830;28;20257;-85
2023/03/13 06:30:27;;;;;;;6.70;2.35;;;7.30;99.90;;;;;;5033391;28;20230;-91
2023/03/13 06:32:56;;;;;;;11.55;2.25;;;7.40;99.90;;;;;;5033222;28;20206;-91
2023/03/13 06:35:24;;;;;;;3.20;2.13;;;7.50;99.90;;;;;;5032991;28;20224;-92
2023/03/13 06:37:53;;;;;;;4.25;2.10;;;7.50;99.90;;;;;;5032844;28;20223;-91
2023/03/13 06:40:25;;;;;;;4.70;2.50;;;7.60;99.90;;;;;;5033330;28;20267;-91
2023/03/13 06:42:54;;;;;;;4.93;3.28;;;7.60;99.90;;;;;;5033265;28;20214;-91
2023/03/13 06:45:22;;;;;;;2.30;2.20;;;7.60;99.90;;;;;;5033143;28;20209;-91
2023/03/13 06:47:51;;;;;;;3.08;2.78;;;7.70;99.90;;;;;;5033462;28;20577;-91
2023/03/13 06:50:19;;;;;;;2.63;2.40;;;7.70;99.90;;;;;;5033173;28;20234;-91
2023/03/13 06:52:48;;;;;;;5.25;2.63;;;7.70;99.90;;;;;;5033493;28;20205;-91
2023/03/13 06:55:16;;;;;;;3.92;2.33;;;7.60;99.90;;;;;;5032639;28;20225;-92
2023/03/13 06:57:50;;;;;;;3.00;2.70;;;7.70;99.90;;;;;;5032402;28;20253;-93
2023/03/13 07:00:20;;;;;;;6.07;3.42;;;7.70;99.90;;;;;;5031331;28;20297;-86
2023/03/13 07:02:48;;;;;;;3.45;2.20;;;7.70;99.90;;;;;;5031957;28;20206;-86
2023/03/13 07:05:17;;;;;;;3.13;2.25;;;7.80;99.90;;;;;;5032294;28;20294;-87
2023/03/13 07:07:45;;;;;;;5.63;3.20;;;7.80;99.90;;;;;;5025300;28;20202;-87
2023/03/13 07:10:13;;;;;;;9.10;3.13;;;7.80;99.90;;;;;;5016672;28;20249;-86
2023/03/13 07:12:43;;;;;;;4.97;2.60;;;7.90;99.90;;;;;;5018092;28;20203;-86
2023/03/13 07:15:13;;;;;;;3.28;2.95;;;7.90;99.90;;;;;;5031713;28;20213;-85
2023/03/13 07:17:41;;;;;;;4.25;2.40;;;8.00;99.90;;;;;;5032041;28;20226;-87
2023/03/13 07:20:11;;;;;;;3.13;2.63;;;8.10;99.90;;;;;;5032180;28;20241;-87
2023/03/13 07:22:40;;;;;;;3.03;2.30;;;8.30;99.90;;;;;;5032192;28;20206;-86
2023/03/13 07:25:09;;;;;;;2.08;1.88;;;8.50;99.90;;;;;;5031939;28;20199;-86
2023/03/13 07:27:38;;;;;;;3.53;2.45;;;8.60;99.90;;;;;;5031537;28;20240;-86
2023/03/13 07:30:07;;;;;;;4.00;2.67;;;8.80;99.90;;;;;;5032063;28;20230;-86
2023/03/13 07:32:37;;;;;;;3.28;2.47;;;8.90;99.90;;;;;;5031799;28;20242;-86
2023/03/13 07:35:06;;;;;;;2.40;2.20;;;9.00;99.90;;;;;;5031822;28;20209;-87
2023/03/13 07:37:34;;;;;;;3.30;2.35;;;9.10;99.90;;;;;;5031406;28;20289;-87
2023/03/13 07:40:04;;;;;;;2.35;1.80;;;9.20;99.90;;;;;;5032141;28;20234;-87
2023/03/13 07:42:33;;;;;;;4.93;2.60;;;9.30;99.90;;;;;;5032328;28;20206;-87
2023/03/13 07:45:01;;;;;;;3.08;2.58;;;9.40;99.90;;;;;;5031504;28;20202;-87
2023/03/13 07:47:29;;;;;;;3.53;2.55;;;9.60;99.90;;;;;;5031388;28;20194;-87
2023/03/13 07:50:00;;;;;;;3.65;3.35;;;9.70;99.90;;;;;;5032200;28;20238;-87
2023/03/13 07:52:30;;;;;;;5.20;3.10;;;9.80;99.90;;;;;;5031389;28;20268;-86
2023/03/13 07:54:58;;;;;;;3.97;2.53;;;9.80;99.90;;;;;;5033693;28;20218;-86
2023/03/13 07:57:27;;;;;;;2.28;2.08;;;9.80;99.90;;;;;;5032886;28;20289;-86
2023/03/13 07:59:55;;;;;;;2.92;2.30;;;9.80;99.90;;;;;;5032951;28;20238;-86
2023/03/13 08:02:23;;;;;;;4.00;2.05;;;9.90;99.90;;;;;;5033685;28;20218;-86
2023/03/13 08:04:52;;;;;;;2.55;1.92;;;10.00;99.90;;;;;;5032804;28;20214;-86
2023/03/13 08:07:22;;;;;;;3.42;2.25;;;10.10;99.90;;;;;;5033247;28;20257;-86
2023/03/13 08:09:51;;;;;;;3.22;2.05;;;10.00;99.90;;;;;;5033184;28;20227;-87
2023/03/13 08:12:21;;;;;;;2.00;1.73;;;10.10;99.90;;;;;;5030463;28;20220;-86
2023/03/13 08:14:49;;;;;;;2.03;1.83;;;10.30;99.90;;;;;;5015352;28;20273;-81
2023/03/13 08:17:17;;;;;;;3.90;1.83;;;10.40;99.90;;;;;;5012833;28;20211;-81
2023/03/13 08:19:48;;;;;;;1.88;1.77;;;10.60;99.90;;;;;;5012697;28;20239;-81
2023/03/13 08:22:16;;;;;;;1.67;1.58;;;10.70;99.90;;;;;;5012630;28;20207;-81
2023/03/13 08:24:46;;;;;;;2.55;2.00;;;10.90;99.90;;;;;;5013141;28;20238;-81
2023/03/13 08:27:14;;;;;;;3.10;1.83;;;11.00;99.90;;;;;;5011761;28;20242;-81
2023/03/13 08:29:43;;;;;;;2.70;1.88;;;11.10;99.90;;;;;;5012605;28;20241;-80
2023/03/13 08:32:11;;;;;;;2.53;2.33;;;11.30;99.90;;;;;;5012546;28;20304;-81
2023/03/13 08:34:40;;;;;;;1.98;1.65;;;11.40;99.90;;;;;;5012833;28;20211;-81
2023/03/13 08:37:08;;;;;;;3.33;1.80;;;11.60;99.90;;;;;;5012366;28;20207;-80
2023/03/13 08:39:37;;;;;;;2.00;1.50;;;11.70;99.90;;;;;;5012482;28;20241;-80
2023/03/13 08:42:08;;;;;;;2.10;1.90;;;11.80;99.90;;;;;;5012705;28;20223;-80
2023/03/13 08:44:36;;;;;;;3.08;1.80;;;11.80;99.90;;;;;;5012080;28;20293;-81
2023/03/13 08:47:06;;;;;;;2.03;1.80;;;11.80;99.90;;;;;;5025866;28;20475;-80
2023/03/13 08:49:35;;;;;;;2.28;1.90;;;11.90;99.90;;;;;;5032106;28;20290;-80
2023/03/13 08:52:04;;;;;;;2.35;2.15;;;11.90;99.90;;;;;;5032165;28;20206;-86
2023/03/13 08:54:33;;;;;;;;;;;12.00;99.90;;;;;;5032681;28;20073;-87
2023/03/13 08:57:01;;;;;;;;;;;12.20;99.90;;;;;;5031527;28;19993;-86
2023/03/13 08:59:31;;;;;;;;;;;12.40;99.90;;;;;;5032424;28;20026;-86
2023/03/13 09:01:59;;;;;;;;;;;12.60;99.90;;;;;;5032830;28;19981;-87
2023/03/13 09:04:28;;;;;;;;;;;12.90;99.90;;;;;;5032609;28;19947;-87
2023/03/13 09:06:56;;;;;;;;;;;13.10;99.90;;;;;;5030865;28;19967;-87
2023/03/13 09:09:24;;;;;;;;;;;13.20;99.90;;;;;;5032142;28;20006;-87
2023/03/13 09:11:53;;;;;;;6.72;2.53;;;13.10;99.90;;;;;;5045084;28;20180;-86
2023/03/13 09:14:22;;;;;;;2.58;2.38;;;13.10;99.90;;;;;;5052031;28;20248;-85
2023/03/13 09:16:51;;;;;;;;;;;13.00;99.90;;;;;;5051887;28;20103;-86
2023/03/13 09:19:20;;;;;;;;;;;13.10;99.90;;;;;;5051676;28;20000;-86
2023/03/13 09:21:48;;;;;;;;;;;13.10;99.90;;;;;;5052054;28;19953;-86
2023/03/13 09:24:16;;;;;;;;;;;13.30;99.90;;;;;;5038190;28;19973;-90
2023/03/13 09:26:44;;;;;;;;;;;13.40;99.90;;;;;;5030911;28;20038;-83
2023/03/13 09:29:27;;;;;;;;;;;13.70;99.90;;;;;;5032411;28;20167;-85
2023/03/13 09:31:56;;;;;;;;;;;13.90;99.90;;;;;;5030380;28;19939;-85
2023/03/13 09:34:25;;;;;;;;;;;14.20;99.90;;;;;;5019949;28;19995;-84
2023/03/13 09:36:53;;;;;;;;;;;14.40;99.90;;;;;;5018945;28;20085;-82
2023/03/13 09:39:21;;;;;;;;;;;14.70;99.90;;;;;;5014455;28;20054;-83
2023/03/13 09:41:53;;;;;;;;;;;14.80;99.90;;;;;;5019381;28;19954;-81
2023/03/13 09:44:25;;;;;;;;;;;14.90;99.90;;;;;;5023372;28;19921;-81
2023/03/13 09:47:01;;;;;;;;;;;15.00;99.90;;;;;;5033695;28;19943;-81
2023/03/13 09:49:31;;;;;;;;;;;15.40;99.90;;;;;;5033005;28;20039;-82
2023/03/13 09:52:02;;;;;;;;;;;15.70;99.90;;;;;;5033871;28;19936;-81
2023/03/13 09:54:34;;;;;;;;;;;16.00;99.20;;;;;;5033785;28;19946;-83
2023/03/13 09:57:05;;;;;;;;;;;16.20;98.60;;;;;;5033185;28;20063;-82
2023/03/13 09:59:45;;;;;;;;;;;16.20;97.90;;;;;;5033520;28;20009;-82
2023/03/13 10:02:19;;;;;;;;;;;16.20;97.30;;;;;;5039931;28;19941;-82
2023/03/13 10:04:50;;;;;;;;;;;16.00;96.90;;;;;;5053301;28;19944;-82
2023/03/13 10:07:19;;;;;;;;;;;15.80;96.80;;;;;;5048055;28;19940;-82
2023/03/13 10:09:52;;;;;;;;;;;15.40;96.40;;;;;;5033693;28;19958;-80
2023/03/13 10:12:24;;;;;;;4.50;3.63;;;15.30;97.10;;;;;;5032623;28;20189;-82
2023/03/13 10:14:58;;;;;;;;;;;15.10;96.50;;;;;;5033451;28;20067;-83
2023/03/13 10:17:31;;;;;;;;;;;15.00;96.50;;;;;;5031288;28;19992;-82
2023/03/13 10:20:07;;;;;;;;;;;15.00;96.00;;;;;;5013570;28;19962;-83
2023/03/13 10:22:36;;;;;;;3.67;3.28;;;15.00;96.30;;;;;;5014845;28;20238;-82
2023/03/13 10:25:07;;;;;;;;;;;14.80;96.40;;;;;;5033613;28;20126;-83
2023/03/13 10:27:42;;;;;;;;;;;14.70;96.70;;;;;;5032074;28;19924;-82
2023/03/13 10:30:21;;;;;;;3.92;3.58;;;14.70;96.30;;;;;;5021672;28;19950;-82
2023/03/13 10:32:51;;;;;;;;;;;14.70;96.30;;;;;;5033304;28;20075;-82
2023/03/13 10:35:24;;;;;;;;;;;14.60;96.80;;;;;;5033177;28;19957;-79
2023/03/13 10:38:03;;;;;;;4.22;3.83;;;14.70;96.60;;;;;;5023877;28;20210;-79
2023/03/13 10:40:32;;;;;;;;;;;14.70;96.00;;;;;;5032413;28;20131;-79
2023/03/13 10:43:02;;;;;;;;;;;14.60;96.00;;;;;;5032862;28;20041;-79
2023/03/13 10:45:32;;;;;;;;;;;14.70;95.70;;;;;;5032612;28;19939;-82
2023/03/13 10:48:08;;;;;;;;;;;14.80;95.90;;;;;;5032173;28;19938;-79
2023/03/13 10:50:36;;;;;;;;;;;14.90;95.70;;;;;;5032973;28;19957;-82
2023/03/13 10:53:19;;;;;;;;;;;15.00;96.10;;;;;;5032866;28;20025;-82
2023/03/13 10:55:48;;;;;;;;;;;15.10;96.00;;;;;;5032903;28;20051;-82
2023/03/13 10:58:19;;;;;;;;;;;15.10;95.20;;;;;;5032238;28;19966;-82
2023/03/13 11:00:50;;;;;;;;;;;15.10;95.10;;;;;;5035028;28;19962;-82
2023/03/13 11:03:24;;;;;;;;;;;15.10;95.60;;;;;;5033022;28;19945;-79
2023/03/13 11:05:59;;;;;;;;;;;15.00;94.80;;;;;;5033095;28;19996;-79
2023/03/13 11:08:28;;;;;;;;;;;15.00;95.10;;;;;;5032332;28;19944;-85
2023/03/13 11:10:58;;;;;;;;;;;15.00;94.80;;;;;;5032994;28;19955;-79
2023/03/13 11:13:30;;;;;;;;;;;15.00;95.00;;;;;;5033021;28;20023;-78
2023/03/13 11:16:20;;;;;;;;;;;15.00;95.30;;;;;;5032844;28;19982;-79
2023/03/13 11:19:05;;;;;;;;;;;15.00;95.10;;;;;;5012546;28;19963;-82
2023/03/13 11:21:39;;;;;;;;;;;15.10;95.30;;;;;;5022405;28;19957;-84
2023/03/13 11:24:10;;;;;;;;;;;15.10;94.40;;;;;;5052178;28;19949;-85
2023/03/13 11:26:40;;;;;;;;;;;15.10;94.80;;;;;;5052403;28;19981;-87
2023/03/13 11:29:15;;;;;;;;;;;15.20;95.00;;;;;;5054062;28;19938;-85
2023/03/13 11:31:46;;;;;;;;;;;15.30;95.40;;;;;;5056210;28;19943;-85
2023/03/13 11:34:17;;;;;;;;;;;15.30;94.90;;;;;;5055953;28;19939;-85
2023/03/13 11:36:52;;;;;;;;;;;15.40;94.70;;;;;;5055583;28;19964;-85
2023/03/13 11:39:33;;;;;;;;;;;15.40;94.30;;;;;;5055935;28;20049;-85
2023/03/13 11:42:03;;;;;;;;;;;15.50;94.60;;;;;;5037291;28;20030;-86
2023/03/13 11:44:43;;;;;;;;;;;15.50;94.10;;;;;;5037641;28;19939;-85
2023/03/13 11:47:27;;;;;;;;;;;15.50;94.00;;;;;;5044472;28;19935;-85
2023/03/13 11:50:03;;;;;;;;;;;15.50;94.10;;;;;;5037586;28;20055;-83
2023/03/13 11:52:42;;;;;;;;;;;15.40;94.00;;;;;;5042809;28;19935;-79
2023/03/13 11:55:17;;;;;;;;;;;15.30;93.70;;;;;;5035842;28;19945;-84
2023/03/13 11:57:51;;;;;;;;;;;15.30;93.90;;;;;;5041406;28;20038;-84
2023/03/13 12:00:23;;;;;;;;;;;15.20;94.10;;;;;;5035540;28;20064;-84
2023/03/13 12:02:54;;;;;;;;;;;15.10;94.60;;;;;;5035836;28;19944;-85
2023/03/13 12:05:27;;;;;;;;;;;15.10;94.30;;;;;;5035747;28;20002;-84
2023/03/13 12:08:02;;;;;;;;;;;15.10;93.90;;;;;;5041682;28;19938;-83
2023/03/13 12:10:33;;;;;;;;;;;15.10;94.40;;;;;;5035448;28;19990;-79
2023/03/13 12:13:03;;;;;;;;;;;15.10;94.10;;;;;;5035624;28;19936;-84
2023/03/13 12:15:34;;;;;;;;;;;15.00;93.70;;;;;;5035641;28;20042;-86
2023/03/13 12:18:04;;;;;;;;;;;15.00;94.30;;;;;;5035171;28;20013;-86
2023/03/13 12:20:37;;;;;;;;;;;15.00;93.60;;;;;;5035537;28;19961;-86
2023/03/13 12:23:16;;;;;;;;;;;15.00;93.80;;;;;;5035706;28;20015;-86
2023/03/13 12:25:47;;;;;;;;;;;15.10;93.90;;;;;;5035864;28;19946;-86
2023/03/13 12:28:22;;;;;;;;;;;15.20;94.40;;;;;;5034993;28;19987;-86
2023/03/13 12:30:54;;;;;;;;;;;15.30;94.00;;;;;;5035678;28;19961;-86
2023/03/13 12:33:25;;;;;;;;;;;15.50;93.70;;;;;;5035356;28;19942;-86
2023/03/13 12:35:57;;;;;;;;;;;15.60;93.30;;;;;;5035424;28;20004;-86
2023/03/13 12:38:29;;;;;;;;;;;15.70;93.10;;;;;;5034892;28;19945;-87
2023/03/13 12:41:08;;;;;;;;;;;15.90;93.10;;;;;;5035110;28;20055;-87
2023/03/13 12:43:38;;;;;;;;;;;16.00;92.80;;;;;;5035084;28;20008;-87
2023/03/13 12:46:16;;;;;;;;;;;16.20;93.00;;;;;;5034951;28;19940;-85
2023/03/13 12:48:51;;;;;;;;;;;16.30;92.60;;;;;;5019376;28;20045;-83
2023/03/13 12:51:24;;;;;;;;;;;16.40;92.40;;;;;;5015498;28;19965;-79
2023/03/13 12:54:11;;;;;;;;;;;16.40;92.30;;;;;;5015378;28;20040;-79
2023/03/13 12:56:54;;;;;;;;;;;16.30;92.10;;;;;;5014521;28;19943;-80
2023/03/13 12:59:27;;;;;;;;;;;16.20;92.40;;;;;;5014614;28;19964;-80
2023/03/13 13:01:56;;;;;;;;;;;16.10;92.20;;;;;;5015084;28;20013;-80
2023/03/13 13:04:25;;;;;;;;;;;16.10;92.10;;;;;;5014358;28;20008;-80
2023/03/13 13:06:56;;;;;;;;;;;16.00;91.90;;;;;;5014880;28;19943;-80
2023/03/13 13:09:25;;;;;;;;;;;15.90;92.00;;;;;;5015282;28;20019;-80
2023/03/13 13:11:55;;;;;;;;;;;15.80;91.90;;;;;;5015075;28;19947;-80
2023/03/13 13:14:53;;;;;;;;;;;15.70;91.90;;;;;;5014981;28;19946;-80
2023/03/13 13:17:35;;;;;;;;;;;15.60;92.10;;;;;;5014416;28;20006;-80
2023/03/13 13:20:21;;;;;;;;;;;15.60;92.10;;;;;;5015182;28;20054;-80
2023/03/13 13:22:50;;;;;;;;;;;15.50;91.80;;;;;;5014479;28;19965;-79
2023/03/13 13:25:27;;;;;;;;;;;15.40;91.80;;;;;;5014305;28;19955;-80
2023/03/13 13:27:56;;;;;;;;;;;15.40;92.10;;;;;;5013693;28;19946;-85
2023/03/13 13:30:30;;;;;;;;;;;15.30;91.70;;;;;;5014553;28;19963;-85
2023/03/13 13:33:13;;;;;;;;;;;15.30;91.70;;;;;;5014637;28;19977;-85
2023/03/13 13:35:44;;;;;;;;;;;15.30;91.40;;;;;;5014263;28;19941;-85
2023/03/13 13:38:29;;;;;;;;;;;15.30;91.40;;;;;;5014283;28;19947;-79